Terminal Aerodrome Forecast
Issued by NWS Portland, OR

Home | Current Version | Previous Version | Text Only | Print | Product List | Glossary On
Versions: 1 2 3 4 5 6 7 8 9 10 11 12 13 14 15 16 17 18 19 20 21 22 23 24 25 26 27 28 29 30 31 32 33 34 35 36 37 38 39 40 41 42 43 44 45 46
000
FTUS46 KPQR 251123
TAFAST
TAF
KAST 251123Z 2512/2612 32012KT P6SM -SHRA SCT025 BKN035
     FM252100 32005KT P6SM VCSH SCT025 BKN045
     FM260300 VRB03KT P6SM BKN022 OVC035
     FM261000 09004KT P6SM SCT025 OVC050=

USA.gov is the U.S. government's official web portal to all federal, state and local government web resources and services.